< Cyclone 201824 2019 Season Cyclone 201905 >
Cyclone 201904 (Owen)
General InformationDetailed Track InformationTrack Information on Google MapsList of All Images || ResourceGoogle EarthGE AnimationAtom FeedGeoJSON
Detalied Best Track Wind (Time Zone = UTC)
Year Month Day Hour Lat. Long. Wind (kt) Gust (kt) Direc. of Major Storm Axis Radius of Major Storm Axis (nm) Radius of Minor Storm Axis (nm) Direc. of Major Gale Axis Radius of Major Gale Axis (nm) Radius of Minor Gale Axis (nm) Image
2018 11 29 21 -8.2 155.6 20 45 symmetric - - symmetric - - Image
2018 11 30 00 -8.6 155.6 20 45 symmetric - - symmetric - - Image
2018 11 30 03 -9.2 155.6 20 45 symmetric - - symmetric - - Image
2018 11 30 06 -9.8 155.5 20 45 symmetric - - symmetric - - Image
2018 11 30 12 -10.3 154.9 25 45 symmetric - - symmetric - - Image
2018 11 30 18 -10.9 154.5 25 45 symmetric - - symmetric - - Image
2018 12 1 00 -11.3 154.5 25 45 symmetric - - symmetric - - Image
2018 12 1 06 -11.7 154.5 25 45 symmetric - - symmetric - - Image
2018 12 1 12 -12.2 154.4 25 45 symmetric - - symmetric - - Image
2018 12 1 18 -12.8 154.3 25 45 symmetric - - symmetric - - Image
2018 12 2 00 -13.6 154.3 30 45 symmetric - - symmetric - - Image
2018 12 2 03 -13.8 154.4 30 45 symmetric - - symmetric - - Image
2018 12 2 06 -14.0 154.5 35 50 symmetric - - symmetric - - Image
2018 12 2 12 -14.5 154.7 40 55 symmetric - - symmetric - - Image
2018 12 2 18 -15.1 154.9 40 55 symmetric - - symmetric - - Image
2018 12 3 00 -15.5 155.1 45 65 symmetric - - symmetric - - Image
2018 12 3 06 -15.6 155.4 45 65 symmetric - - symmetric - - Image
2018 12 3 12 -15.7 155.8 45 65 symmetric - - symmetric - - Image
2018 12 3 18 -15.9 156.2 45 65 symmetric - - symmetric - - Image
2018 12 4 00 -15.8 155.4 35 50 symmetric - - symmetric - - Image
2018 12 4 03 -15.5 154.9 35 50 symmetric - - symmetric - - Image
2018 12 8 00 -15.5 149.7 34 -1 symmetric - - symmetric - - Image
2018 12 8 06 -15.9 149.4 33 -1 symmetric - - symmetric - - Image
2018 12 8 12 -16.2 148.6 32 -1 symmetric - - symmetric - - Image
2018 12 8 18 -16.3 147.6 31 -1 symmetric - - symmetric - - Image
2018 12 9 00 -16.0 147.3 30 45 symmetric - - symmetric - - Image
2018 12 9 06 -16.1 147.0 30 45 symmetric - - symmetric - - Image
2018 12 9 12 -16.0 146.5 30 45 symmetric - - symmetric - - Image
2018 12 9 18 -16.3 145.5 30 45 symmetric - - symmetric - - Image
2018 12 9 21 -16.0 144.4 20 45 symmetric - - symmetric - - Image
2018 12 10 00 -15.8 143.7 20 45 symmetric - - symmetric - - Image
2018 12 10 03 -15.9 143.4 20 45 symmetric - - symmetric - - Image
2018 12 10 06 -15.8 142.9 20 45 symmetric - - symmetric - - Image
2018 12 10 09 -15.7 142.1 20 45 symmetric - - symmetric - - Image
2018 12 10 12 -15.6 141.7 20 45 symmetric - - symmetric - - Image
2018 12 10 15 -15.4 141.3 25 45 symmetric - - symmetric - - Image
2018 12 10 18 -15.3 140.8 25 45 symmetric - - symmetric - - Image
2018 12 10 21 -15.3 140.4 25 45 symmetric - - symmetric - - Image
2018 12 11 00 -15.3 140.0 30 45 symmetric - - symmetric - - Image
2018 12 11 03 -15.2 139.5 30 45 symmetric - - symmetric - - Image
2018 12 11 06 -15.0 139.2 30 45 symmetric - - symmetric - - Image
2018 12 11 09 -15.0 139.0 35 50 symmetric - - symmetric - - Image
2018 12 11 12 -14.8 138.8 40 55 symmetric - - symmetric - - Image
2018 12 11 15 -14.8 138.4 40 55 symmetric - - symmetric - - Image
2018 12 11 18 -14.7 137.9 40 55 symmetric - - symmetric - - Image
2018 12 11 21 -14.7 137.8 45 65 symmetric - - symmetric - - Image
2018 12 12 00 -14.7 137.6 50 70 symmetric - - symmetric - - Image
2018 12 12 03 -14.7 137.4 50 70 symmetric - - symmetric - - Image
2018 12 12 06 -14.8 137.1 50 70 symmetric - - symmetric - - Image
2018 12 12 09 -14.8 136.8 50 70 symmetric - - symmetric - - Image
2018 12 12 12 -14.8 136.6 60 85 symmetric - - symmetric - - Image
2018 12 12 15 -14.9 136.4 60 85 symmetric - - symmetric - - Image
2018 12 12 18 -15.1 136.1 60 85 symmetric - - symmetric - - Image
2018 12 12 21 -15.2 136.0 80 110 symmetric - - symmetric - - Image
2018 12 13 00 -15.2 135.9 80 110 symmetric - - symmetric - - Image
2018 12 13 03 -15.1 135.9 80 110 symmetric - - symmetric - - Image
2018 12 13 06 -15.0 136.1 75 105 symmetric - - symmetric - - Image
2018 12 13 09 -15.0 136.6 75 105 symmetric - - symmetric - - Image
2018 12 13 12 -15.0 136.9 75 105 symmetric - - symmetric - - Image
2018 12 13 15 -15.1 137.1 75 105 symmetric - - symmetric - - Image
2018 12 13 18 -15.2 137.3 75 105 symmetric - - symmetric - - Image
2018 12 13 21 -15.1 137.5 75 105 symmetric - - symmetric - - Image
2018 12 14 00 -15.1 137.9 75 105 symmetric - - symmetric - - Image
2018 12 14 03 -15.0 138.5 75 105 symmetric - - symmetric - - Image
2018 12 14 06 -14.9 138.9 75 105 symmetric - - symmetric - - Image
2018 12 14 09 -15.0 139.8 65 90 symmetric - - symmetric - - Image
2018 12 14 12 -15.2 140.6 65 90 symmetric - - symmetric - - Image
2018 12 14 15 -15.7 141.1 65 90 symmetric - - symmetric - - Image
2018 12 14 17 -16.1 141.4 65 90 symmetric - - symmetric - - Image
2018 12 14 18 -16.2 141.6 55 75 symmetric - - symmetric - - Image
2018 12 14 21 -16.7 142.1 50 70 symmetric - - symmetric - - Image
2018 12 15 00 -16.9 142.6 45 65 symmetric - - symmetric - - Image
2018 12 15 03 -17.2 143.2 35 50 symmetric - - symmetric - - Image
2018 12 15 06 -17.5 144.0 33 45 symmetric - - symmetric - - Image
2018 12 15 12 -17.7 145.2 30 45 symmetric - - symmetric - - Image
2018 12 15 16 -17.7 146.1 30 45 symmetric - - symmetric - - Image
2018 12 15 18 -17.9 146.6 30 45 symmetric - - symmetric - - Image
2018 12 15 21 -18.3 147.1 30 45 symmetric - - symmetric - - Image
2018 12 16 00 -18.6 147.7 0 -1 symmetric - - symmetric - - Image
2018 12 16 06 -19.2 149.6 0 -1 symmetric - - symmetric - - Image
2018 12 17 00 -21.0 150.5 0 -1 symmetric - - symmetric - - Image
2018 12 17 06 -20.5 150.9 0 -1 symmetric - - symmetric - - Image
2018 12 18 00 -19.6 152.5 0 -1 symmetric - - symmetric - - Image
2018 12 18 06 -19.7 153.0 0 -1 symmetric - - symmetric - - Image
2018 12 19 00 -19.8 152.5 0 -1 symmetric - - symmetric - - Image
2018 12 19 06 -19.3 151.8 0 -1 symmetric - - symmetric - - Image
2018 12 20 00 -17.0 150.6 0 -1 symmetric - - symmetric - - Image
2018 12 20 06 -17.0 150.0 0 -1 symmetric - - symmetric - - Image
< Cyclone 201824 2019 Season Cyclone 201905 >

Help